Hamaritha — PF2437 — position and weather

sailwx.info

Track history (hours):
 
Tides and Currents Weather Stations Pressure Air Temp Water Temp Dewpoint Dewpoint Depression Visibility Wind Speed Wind Dir Waves Ship Positions

Hamaritha

Last reported at 2016-Feb-12 00:33 UTC. Time now 2016-Feb-12 01:26 UTC.
Position N 51°13' E 006°42'.

Length 86 m.

Type: Ship. MMSI: 244700691.

Date/timePositionNaut miles runAvg speedWind from/ knotsBaromVisibWave heightAir tempDewpointWater temp
2016-Feb-12 00:33N 51°13' E 006°42'0 0.0
2016-Feb-11 23:33N 51°13' E 006°42'0 0.0
2016-Feb-11 22:34N 51°13' E 006°42'0 0.0
2016-Feb-11 21:33N 51°13' E 006°42'0 0.0
2016-Feb-11 20:33N 51°13' E 006°42'0 0.0
2016-Feb-11 19:34N 51°13' E 006°42'0 0.0
2016-Feb-11 18:34N 51°13' E 006°42'0 0.5
2016-Feb-11 17:33N 51°13' E 006°42'3 2.8
2016-Feb-11 16:33N 51°15' E 006°46'4 3.8
2016-Feb-11 15:29N 51°19' E 006°44'4 4.2
2016-Feb-11 14:30N 51°22' E 006°40'4 4.0
2016-Feb-11 13:30N 51°25' E 006°44'5 3.3
2016-Feb-11 12:06N 51°29' E 006°49'2 2.7
2016-Feb-11 11:26N 51°30' E 006°51'4 4.5
2016-Feb-11 10:29N 51°30' E 006°58'0 0.1
2016-Feb-11 09:33N 51°30' E 006°58'0 0.0
2016-Feb-11 08:33N 51°30' E 006°58'0 0.0
2016-Feb-11 07:33N 51°30' E 006°58'0 0.0
2016-Feb-11 06:33N 51°30' E 006°58'0 0.0
2016-Feb-11 05:33N 51°30' E 006°58'0 0.0
2016-Feb-11 04:33N 51°30' E 006°58'0 0.0
2016-Feb-11 03:33N 51°30' E 006°58'0 0.0
2016-Feb-11 02:33N 51°30' E 006°58'0 0.0
2016-Feb-11 01:31N 51°30' E 006°58'0 0.0
2016-Feb-11 00:33N 51°30' E 006°58'0 0.0
2016-Feb-10 23:33N 51°30' E 006°58'0 0.0
2016-Feb-10 22:33N 51°30' E 006°58'0 0.0
2016-Feb-10 21:33N 51°30' E 006°58'0 0.0
2016-Feb-10 20:33N 51°30' E 006°58'0 0.0
2016-Feb-10 19:33N 51°30' E 006°58'0 0.0
2016-Feb-10 18:33N 51°30' E 006°58'0 0.0
2016-Feb-10 17:33N 51°30' E 006°58'0 0.0
2016-Feb-10 16:33N 51°30' E 006°58'0 0.0
2016-Feb-10 15:33N 51°30' E 006°58'0 0.0
2016-Feb-10 14:33N 51°30' E 006°58'0 0.0
2016-Feb-10 13:33N 51°30' E 006°58'0 0.1
2016-Feb-10 12:32N 51°30' E 006°58'0 0.0
2016-Feb-10 11:33N 51°30' E 006°58'0 0.0
2016-Feb-10 10:33N 51°30' E 006°58'0 0.0
2016-Feb-10 09:32N 51°30' E 006°58'0 0.0
2016-Feb-10 08:33N 51°30' E 006°58'0 0.0
2016-Feb-10 07:32N 51°30' E 006°58'0 0.0
2016-Feb-10 06:33N 51°30' E 006°58'5 4.8
2016-Feb-10 05:32N 51°29' E 006°50'5 0.5
2016-Feb-09 20:29N 51°27' E 006°44'3 3.5
2016-Feb-09 19:33N 51°29' E 006°41'3 2.8
2016-Feb-09 18:33N 51°32' E 006°41'3 2.6
2016-Feb-09 17:33N 51°34' E 006°37'4 4.0
2016-Feb-09 16:33N 51°38' E 006°35'3 3.0
2016-Feb-09 15:27N 51°40' E 006°31'8 3.6
2016-Feb-09 13:16N 51°45' E 006°22'3 4.2
2016-Feb-09 12:31N 51°48' E 006°19'4 4.6
2016-Feb-09 11:32N 51°50' E 006°12'5 4.6
2016-Feb-09 10:33N 51°51' E 006°05'8 3.7
2016-Feb-09 08:23N 51°51' E 005°52'4 4.8
2016-Feb-09 07:32N 51°53' E 005°46'10 5.2
2016-Feb-09 05:31N 51°53' E 005°29'5 4.9
2016-Feb-09 04:31N 51°50' E 005°24'4 4.0
2016-Feb-09 03:32N 51°49' E 005°17'5 5.1
2016-Feb-09 02:33N 51°49' E 005°09'5 5.0
2016-Feb-09 01:33N 51°49' E 005°01'6 5.6
2016-Feb-09 00:33N 51°49' E 004°52'6 5.6
2016-Feb-08 23:33N 51°46' E 004°45'7 6.8
2016-Feb-08 22:33N 51°42' E 004°35'7 6.3
2016-Feb-08 21:31N 51°41' E 004°25'10 5.1
2016-Feb-08 19:33N 51°34' E 004°13'7 6.1
2016-Feb-08 18:21N 51°27' E 004°14'3 3.4
2016-Feb-08 17:29N 51°24' E 004°14'7 7.0
2016-Feb-08 16:33N 51°18' E 004°20'2 1.7
2016-Feb-08 15:33N 51°17' E 004°19'3 0.5
2016-Feb-08 09:12N 51°16' E 004°14'0 0.0
2016-Feb-08 08:33N 51°16' E 004°14'0 0.0
2016-Feb-08 07:33N 51°16' E 004°14'0 0.0
2016-Feb-08 06:31N 51°16' E 004°14'0 0.2
2016-Feb-08 05:34N 51°15' E 004°14'0 0.0
2016-Feb-08 04:33N 51°15' E 004°14'0 0.0
2016-Feb-08 03:33N 51°15' E 004°14'0 0.0
2016-Feb-08 02:33N 51°15' E 004°14'0 0.0
2016-Feb-08 01:33N 51°15' E 004°14'0 0.0
2016-Feb-08 00:34N 51°15' E 004°14'0 0.0
2016-Feb-07 23:34N 51°15' E 004°14'0 0.0
2016-Feb-07 22:34N 51°15' E 004°14'0 0.0
2016-Feb-07 21:34N 51°15' E 004°14'0 0.0
2016-Feb-07 20:33N 51°15' E 004°14'0 0.0
2016-Feb-07 19:33N 51°15' E 004°14'0 0.0
2016-Feb-07 18:33N 51°15' E 004°14'0 0.0
2016-Feb-07 17:33N 51°15' E 004°14'0 0.0
2016-Feb-07 16:33N 51°15' E 004°14'0 0.0
2016-Feb-07 15:33N 51°15' E 004°14'0 0.0
2016-Feb-07 14:33N 51°15' E 004°14'0 0.0
2016-Feb-07 13:34N 51°15' E 004°14'0 0.0
2016-Feb-07 12:33N 51°15' E 004°14'0 0.0
2016-Feb-07 11:34N 51°15' E 004°14'0 0.0
2016-Feb-07 10:33N 51°15' E 004°14'0 0.0
2016-Feb-07 09:33N 51°15' E 004°14'0 0.0
2016-Feb-07 08:33N 51°15' E 004°14'0 0.0
2016-Feb-07 07:34N 51°15' E 004°14'0 0.0
2016-Feb-07 06:33N 51°15' E 004°14'0 0.0
2016-Feb-07 05:34N 51°15' E 004°14'0 0.0
2016-Feb-07 04:33N 51°15' E 004°14'0 0.0
2016-Feb-07 03:33N 51°15' E 004°14'0 0.0
2016-Feb-07 02:33N 51°15' E 004°14'0 0.0
2016-Feb-07 01:34N 51°15' E 004°14'0 0.0
2016-Feb-07 00:34N 51°15' E 004°14'0 0.0
2016-Feb-06 23:34N 51°15' E 004°14'0 0.0
2016-Feb-06 22:34N 51°15' E 004°14'0 0.0
2016-Feb-06 21:33N 51°15' E 004°14'1 1.2
2016-Feb-06 20:34N 51°16' E 004°16'0 0.0
2016-Feb-06 19:34N 51°16' E 004°16'0 0.0
2016-Feb-06 18:33N 51°16' E 004°16'0 0.0
2016-Feb-06 17:33N 51°16' E 004°16'0 0.0
2016-Feb-06 16:33N 51°16' E 004°16'0 0.0
2016-Feb-06 15:33N 51°16' E 004°16'0 0.0
2016-Feb-06 14:33N 51°16' E 004°16'0 0.0
2016-Feb-06 13:33N 51°16' E 004°16'0 0.0
2016-Feb-06 12:33N 51°16' E 004°16'0 0.0
2016-Feb-06 11:33N 51°16' E 004°16'0 0.0
2016-Feb-06 10:33N 51°16' E 004°16'0 0.0
2016-Feb-06 09:33N 51°16' E 004°16'0 0.0
2016-Feb-06 08:34N 51°16' E 004°16'3 2.5
2016-Feb-06 07:33N 51°15' E 004°20'7 7.0
2016-Feb-06 06:33N 51°08' E 004°19'1 1.4
2016-Feb-06 05:33N 51°07' E 004°18'0 0.0
2016-Feb-06 04:33N 51°07' E 004°18'0 0.0
2016-Feb-06 03:33N 51°07' E 004°18'0 0.0
2016-Feb-06 02:33N 51°07' E 004°18'0 0.0
2016-Feb-06 01:33N 51°07' E 004°18'0 0.0
2016-Feb-06 00:33N 51°07' E 004°18'0 0.0
2016-Feb-05 23:31N 51°07' E 004°18'0 0.0
2016-Feb-05 22:31N 51°07' E 004°18'0 0.0
2016-Feb-05 21:33N 51°07' E 004°18'0 0.0
2016-Feb-05 20:33N 51°07' E 004°18'1 0.0
2016-Feb-04 08:09N 51°06' E 004°20'2 2.5
2016-Feb-04 07:21N 51°08' E 004°19'5 5.8
2016-Feb-04 06:33N 51°12' E 004°21'5 4.5
2016-Feb-04 05:33N 51°16' E 004°18'2 1.5
2016-Feb-04 04:33N 51°17' E 004°20'2 2.5
2016-Feb-04 03:33N 51°20' E 004°19'0 0.0
2016-Feb-04 02:33N 51°20' E 004°19'0 0.0
2016-Feb-04 01:33N 51°20' E 004°19'0 0.0
2016-Feb-04 00:33N 51°20' E 004°19'0 0.0
2016-Feb-03 23:33N 51°20' E 004°19'0 0.0
2016-Feb-03 22:33N 51°20' E 004°19'0 0.0
2016-Feb-03 21:33N 51°20' E 004°19'1 1.0
2016-Feb-03 20:32N 51°21' E 004°18'6 6.1
2016-Feb-03 19:32N 51°26' E 004°14'5 4.9
2016-Feb-03 18:27N 51°31' E 004°14'8 6.1
2016-Feb-03 17:07N 51°39' E 004°18'4 7.3
2016-Feb-03 16:33N 51°41' E 004°23'5 5.4
2016-Feb-03 15:33N 51°42' E 004°32'8 7.9
2016-Feb-03 14:33N 51°45' E 004°44'8 7.5
2016-Feb-03 13:33N 51°49' E 004°54'3 2.6
2016-Feb-03 12:32N 51°50' E 004°58'0 0.0
2016-Feb-03 11:33N 51°50' E 004°58'0 0.0
2016-Feb-03 10:32N 51°50' E 004°58'0 0.0
2016-Feb-03 09:33N 51°50' E 004°58'3 3.0
2016-Feb-03 08:33N 51°49' E 005°03'9 8.7
2016-Feb-03 07:33N 51°49' E 005°17'8 7.3
2016-Feb-03 06:31N 51°53' E 005°27'10 9.3
2016-Feb-03 05:29N 51°54' E 005°43'5 0.6
2016-Feb-02 21:13N 51°52' E 005°50'7 6.3
2016-Feb-02 20:11N 51°53' E 006°00'7 9.3
2016-Feb-02 19:24N 51°50' E 006°11'  
Track history (hours):
 
Tides and Currents Weather Stations Pressure Air Temp Water Temp Dewpoint Dewpoint Depression Visibility Wind Speed Wind Dir Waves Ship Positions

Hamaritha

Last reported at 2016-Feb-12 00:33 UTC. Time now 2016-Feb-12 01:26 UTC.
Position N 51°13' E 006°42'.

Length 86 m.

Type: Ship. MMSI: 244700691.

Date/timePositionNaut miles runAvg speedWind from/ knotsBaromVisibWave heightAir tempDewpointWater temp
2016-Feb-12 00:33N 51°13' E 006°42'0 0.0
2016-Feb-11 23:33N 51°13' E 006°42'0 0.0
2016-Feb-11 22:34N 51°13' E 006°42'0 0.0
2016-Feb-11 21:33N 51°13' E 006°42'0 0.0
2016-Feb-11 20:33N 51°13' E 006°42'0 0.0
2016-Feb-11 19:34N 51°13' E 006°42'0 0.0
2016-Feb-11 18:34N 51°13' E 006°42'0 0.5
2016-Feb-11 17:33N 51°13' E 006°42'3 2.8
2016-Feb-11 16:33N 51°15' E 006°46'4 3.8
2016-Feb-11 15:29N 51°19' E 006°44'4 4.2
2016-Feb-11 14:30N 51°22' E 006°40'4 4.0
2016-Feb-11 13:30N 51°25' E 006°44'5 3.3
2016-Feb-11 12:06N 51°29' E 006°49'2 2.7
2016-Feb-11 11:26N 51°30' E 006°51'4 4.5
2016-Feb-11 10:29N 51°30' E 006°58'0 0.1
2016-Feb-11 09:33N 51°30' E 006°58'0 0.0
2016-Feb-11 08:33N 51°30' E 006°58'0 0.0
2016-Feb-11 07:33N 51°30' E 006°58'0 0.0
2016-Feb-11 06:33N 51°30' E 006°58'0 0.0
2016-Feb-11 05:33N 51°30' E 006°58'0 0.0
2016-Feb-11 04:33N 51°30' E 006°58'0 0.0
2016-Feb-11 03:33N 51°30' E 006°58'0 0.0
2016-Feb-11 02:33N 51°30' E 006°58'0 0.0
2016-Feb-11 01:31N 51°30' E 006°58'0 0.0
2016-Feb-11 00:33N 51°30' E 006°58'0 0.0
2016-Feb-10 23:33N 51°30' E 006°58'0 0.0
2016-Feb-10 22:33N 51°30' E 006°58'0 0.0
2016-Feb-10 21:33N 51°30' E 006°58'0 0.0
2016-Feb-10 20:33N 51°30' E 006°58'0 0.0
2016-Feb-10 19:33N 51°30' E 006°58'0 0.0
2016-Feb-10 18:33N 51°30' E 006°58'0 0.0
2016-Feb-10 17:33N 51°30' E 006°58'0 0.0
2016-Feb-10 16:33N 51°30' E 006°58'0 0.0
2016-Feb-10 15:33N 51°30' E 006°58'0 0.0
2016-Feb-10 14:33N 51°30' E 006°58'0 0.0
2016-Feb-10 13:33N 51°30' E 006°58'0 0.1
2016-Feb-10 12:32N 51°30' E 006°58'0 0.0
2016-Feb-10 11:33N 51°30' E 006°58'0 0.0
2016-Feb-10 10:33N 51°30' E 006°58'0 0.0
2016-Feb-10 09:32N 51°30' E 006°58'0 0.0
2016-Feb-10 08:33N 51°30' E 006°58'0 0.0
2016-Feb-10 07:32N 51°30' E 006°58'0 0.0
2016-Feb-10 06:33N 51°30' E 006°58'5 4.8
2016-Feb-10 05:32N 51°29' E 006°50'5 0.5
2016-Feb-09 20:29N 51°27' E 006°44'3 3.5
2016-Feb-09 19:33N 51°29' E 006°41'3 2.8
2016-Feb-09 18:33N 51°32' E 006°41'3 2.6
2016-Feb-09 17:33N 51°34' E 006°37'4 4.0
2016-Feb-09 16:33N 51°38' E 006°35'3 3.0
2016-Feb-09 15:27N 51°40' E 006°31'8 3.6
2016-Feb-09 13:16N 51°45' E 006°22'3 4.2
2016-Feb-09 12:31N 51°48' E 006°19'4 4.6
2016-Feb-09 11:32N 51°50' E 006°12'5 4.6
2016-Feb-09 10:33N 51°51' E 006°05'8 3.7
2016-Feb-09 08:23N 51°51' E 005°52'4 4.8
2016-Feb-09 07:32N 51°53' E 005°46'10 5.2
2016-Feb-09 05:31N 51°53' E 005°29'5 4.9
2016-Feb-09 04:31N 51°50' E 005°24'4 4.0
2016-Feb-09 03:32N 51°49' E 005°17'5 5.1
2016-Feb-09 02:33N 51°49' E 005°09'5 5.0
2016-Feb-09 01:33N 51°49' E 005°01'6 5.6
2016-Feb-09 00:33N 51°49' E 004°52'6 5.6
2016-Feb-08 23:33N 51°46' E 004°45'7 6.8
2016-Feb-08 22:33N 51°42' E 004°35'7 6.3
2016-Feb-08 21:31N 51°41' E 004°25'10 5.1
2016-Feb-08 19:33N 51°34' E 004°13'7 6.1
2016-Feb-08 18:21N 51°27' E 004°14'3 3.4
2016-Feb-08 17:29N 51°24' E 004°14'7 7.0
2016-Feb-08 16:33N 51°18' E 004°20'2 1.7
2016-Feb-08 15:33N 51°17' E 004°19'3 0.5
2016-Feb-08 09:12N 51°16' E 004°14'0 0.0
2016-Feb-08 08:33N 51°16' E 004°14'0 0.0
2016-Feb-08 07:33N 51°16' E 004°14'0 0.0
2016-Feb-08 06:31N 51°16' E 004°14'0 0.2
2016-Feb-08 05:34N 51°15' E 004°14'0 0.0
2016-Feb-08 04:33N 51°15' E 004°14'0 0.0
2016-Feb-08 03:33N 51°15' E 004°14'0 0.0
2016-Feb-08 02:33N 51°15' E 004°14'0 0.0
2016-Feb-08 01:33N 51°15' E 004°14'0 0.0
2016-Feb-08 00:34N 51°15' E 004°14'0 0.0
2016-Feb-07 23:34N 51°15' E 004°14'0 0.0
2016-Feb-07 22:34N 51°15' E 004°14'0 0.0
2016-Feb-07 21:34N 51°15' E 004°14'0 0.0
2016-Feb-07 20:33N 51°15' E 004°14'0 0.0
2016-Feb-07 19:33N 51°15' E 004°14'0 0.0
2016-Feb-07 18:33N 51°15' E 004°14'0 0.0
2016-Feb-07 17:33N 51°15' E 004°14'0 0.0
2016-Feb-07 16:33N 51°15' E 004°14'0 0.0
2016-Feb-07 15:33N 51°15' E 004°14'0 0.0
2016-Feb-07 14:33N 51°15' E 004°14'0 0.0
2016-Feb-07 13:34N 51°15' E 004°14'0 0.0
2016-Feb-07 12:33N 51°15' E 004°14'0 0.0
2016-Feb-07 11:34N 51°15' E 004°14'0 0.0
2016-Feb-07 10:33N 51°15' E 004°14'0 0.0
2016-Feb-07 09:33N 51°15' E 004°14'0 0.0
2016-Feb-07 08:33N 51°15' E 004°14'0 0.0
2016-Feb-07 07:34N 51°15' E 004°14'0 0.0
2016-Feb-07 06:33N 51°15' E 004°14'0 0.0
2016-Feb-07 05:34N 51°15' E 004°14'0 0.0
2016-Feb-07 04:33N 51°15' E 004°14'0 0.0
2016-Feb-07 03:33N 51°15' E 004°14'0 0.0
2016-Feb-07 02:33N 51°15' E 004°14'0 0.0
2016-Feb-07 01:34N 51°15' E 004°14'0 0.0
2016-Feb-07 00:34N 51°15' E 004°14'0 0.0
2016-Feb-06 23:34N 51°15' E 004°14'0 0.0
2016-Feb-06 22:34N 51°15' E 004°14'0 0.0
2016-Feb-06 21:33N 51°15' E 004°14'1 1.2
2016-Feb-06 20:34N 51°16' E 004°16'0 0.0
2016-Feb-06 19:34N 51°16' E 004°16'0 0.0
2016-Feb-06 18:33N 51°16' E 004°16'0 0.0
2016-Feb-06 17:33N 51°16' E 004°16'0 0.0
2016-Feb-06 16:33N 51°16' E 004°16'0 0.0
2016-Feb-06 15:33N 51°16' E 004°16'0 0.0
2016-Feb-06 14:33N 51°16' E 004°16'0 0.0
2016-Feb-06 13:33N 51°16' E 004°16'0 0.0
2016-Feb-06 12:33N 51°16' E 004°16'0 0.0
2016-Feb-06 11:33N 51°16' E 004°16'0 0.0
2016-Feb-06 10:33N 51°16' E 004°16'0 0.0
2016-Feb-06 09:33N 51°16' E 004°16'0 0.0
2016-Feb-06 08:34N 51°16' E 004°16'3 2.5
2016-Feb-06 07:33N 51°15' E 004°20'7 7.0
2016-Feb-06 06:33N 51°08' E 004°19'1 1.4
2016-Feb-06 05:33N 51°07' E 004°18'0 0.0
2016-Feb-06 04:33N 51°07' E 004°18'0 0.0
2016-Feb-06 03:33N 51°07' E 004°18'0 0.0
2016-Feb-06 02:33N 51°07' E 004°18'0 0.0
2016-Feb-06 01:33N 51°07' E 004°18'0 0.0
2016-Feb-06 00:33N 51°07' E 004°18'0 0.0
2016-Feb-05 23:31N 51°07' E 004°18'0 0.0
2016-Feb-05 22:31N 51°07' E 004°18'0 0.0
2016-Feb-05 21:33N 51°07' E 004°18'0 0.0
2016-Feb-05 20:33N 51°07' E 004°18'1 0.0
2016-Feb-04 08:09N 51°06' E 004°20'2 2.5
2016-Feb-04 07:21N 51°08' E 004°19'5 5.8
2016-Feb-04 06:33N 51°12' E 004°21'5 4.5
2016-Feb-04 05:33N 51°16' E 004°18'2 1.5
2016-Feb-04 04:33N 51°17' E 004°20'2 2.5
2016-Feb-04 03:33N 51°20' E 004°19'0 0.0
2016-Feb-04 02:33N 51°20' E 004°19'0 0.0
2016-Feb-04 01:33N 51°20' E 004°19'0 0.0
2016-Feb-04 00:33N 51°20' E 004°19'0 0.0
2016-Feb-03 23:33N 51°20' E 004°19'0 0.0
2016-Feb-03 22:33N 51°20' E 004°19'0 0.0
2016-Feb-03 21:33N 51°20' E 004°19'1 1.0
2016-Feb-03 20:32N 51°21' E 004°18'6 6.1
2016-Feb-03 19:32N 51°26' E 004°14'5 4.9
2016-Feb-03 18:27N 51°31' E 004°14'8 6.1
2016-Feb-03 17:07N 51°39' E 004°18'4 7.3
2016-Feb-03 16:33N 51°41' E 004°23'5 5.4
2016-Feb-03 15:33N 51°42' E 004°32'8 7.9
2016-Feb-03 14:33N 51°45' E 004°44'8 7.5
2016-Feb-03 13:33N 51°49' E 004°54'3 2.6
2016-Feb-03 12:32N 51°50' E 004°58'0 0.0
2016-Feb-03 11:33N 51°50' E 004°58'0 0.0
2016-Feb-03 10:32N 51°50' E 004°58'0 0.0
2016-Feb-03 09:33N 51°50' E 004°58'3 3.0
2016-Feb-03 08:33N 51°49' E 005°03'9 8.7
2016-Feb-03 07:33N 51°49' E 005°17'8 7.3
2016-Feb-03 06:31N 51°53' E 005°27'10 9.3
2016-Feb-03 05:29N 51°54' E 005°43'5 0.6
2016-Feb-02 21:13N 51°52' E 005°50'7 6.3
2016-Feb-02 20:11N 51°53' E 006°00'7 9.3
2016-Feb-02 19:24N 51°50' E 006°11'  

Dump ship's entire track history